sensor_id;sensor_type;location;lat;lon;timestamp;P1;durP1;ratioP1;P2;durP2;ratioP2
77705;SDS011;66874;45.274;5.880;2023-01-29T00:01:04;44.03;;;19.40;;
77705;SDS011;66874;45.274;5.880;2023-01-29T00:03:31;43.30;;;20.50;;
77705;SDS011;66874;45.274;5.880;2023-01-29T00:05:57;43.85;;;21.00;;
77705;SDS011;66874;45.274;5.880;2023-01-29T00:08:23;43.85;;;18.98;;
77705;SDS011;66874;45.274;5.880;2023-01-29T00:10:48;42.75;;;18.48;;
77705;SDS011;66874;45.274;5.880;2023-01-29T00:13:14;49.38;;;20.20;;
77705;SDS011;66874;45.274;5.880;2023-01-29T00:15:39;43.60;;;19.58;;
77705;SDS011;66874;45.274;5.880;2023-01-29T00:18:04;52.53;;;21.75;;
77705;SDS011;66874;45.274;5.880;2023-01-29T00:20:30;58.10;;;23.63;;
77705;SDS011;66874;45.274;5.880;2023-01-29T00:22:55;60.17;;;23.55;;
77705;SDS011;66874;45.274;5.880;2023-01-29T00:25:21;53.13;;;22.83;;
77705;SDS011;66874;45.274;5.880;2023-01-29T00:27:47;56.83;;;23.05;;
77705;SDS011;66874;45.274;5.880;2023-01-29T03:00:09;37.85;;;17.30;;
77705;SDS011;66874;45.274;5.880;2023-01-29T03:02:45;36.55;;;16.25;;
77705;SDS011;66874;45.274;5.880;2023-01-29T03:05:16;38.37;;;16.57;;
77705;SDS011;66874;45.274;5.880;2023-01-29T03:07:48;36.30;;;14.88;;
77705;SDS011;66874;45.274;5.880;2023-01-29T03:12:50;38.73;;;17.00;;
77705;SDS011;66874;45.274;5.880;2023-01-29T03:15:21;37.25;;;16.73;;
77705;SDS011;66874;45.274;5.880;2023-01-29T03:17:54;29.08;;;14.57;;
77705;SDS011;66874;45.274;5.880;2023-01-29T03:20:25;36.47;;;16.00;;
77705;SDS011;66874;45.274;5.880;2023-01-29T03:22:57;35.40;;;14.60;;
77705;SDS011;66874;45.274;5.880;2023-01-29T03:25:29;30.60;;;14.38;;
77705;SDS011;66874;45.274;5.880;2023-01-29T03:28:17;29.88;;;13.30;;
77705;SDS011;66874;45.274;5.880;2023-01-29T06:31:42;24.97;;;9.60;;
77705;SDS011;66874;45.274;5.880;2023-01-29T06:34:07;19.10;;;9.83;;
77705;SDS011;66874;45.274;5.880;2023-01-29T06:36:33;20.13;;;9.67;;
77705;SDS011;66874;45.274;5.880;2023-01-29T06:38:58;24.57;;;10.83;;
77705;SDS011;66874;45.274;5.880;2023-01-29T06:41:24;19.33;;;9.30;;
77705;SDS011;66874;45.274;5.880;2023-01-29T06:43:49;23.13;;;10.40;;
77705;SDS011;66874;45.274;5.880;2023-01-29T06:46:15;20.27;;;9.43;;
77705;SDS011;66874;45.274;5.880;2023-01-29T06:48:41;19.77;;;8.20;;
77705;SDS011;66874;45.274;5.880;2023-01-29T06:51:07;22.50;;;10.43;;
77705;SDS011;66874;45.274;5.880;2023-01-29T06:53:34;22.73;;;9.70;;
77705;SDS011;66874;45.274;5.880;2023-01-29T06:56:01;23.65;;;10.15;;
77705;SDS011;66874;45.274;5.880;2023-01-29T06:58:27;22.37;;;9.33;;
77705;SDS011;66874;45.274;5.880;2023-01-29T07:00:53;25.67;;;11.33;;
77705;SDS011;66874;45.274;5.880;2023-01-29T07:03:19;23.33;;;10.13;;
77705;SDS011;66874;45.274;5.880;2023-01-29T07:05:51;22.77;;;9.60;;
77705;SDS011;66874;45.274;5.880;2023-01-29T07:08:18;21.43;;;9.57;;
77705;SDS011;66874;45.274;5.880;2023-01-29T07:10:46;24.50;;;9.73;;
77705;SDS011;66874;45.274;5.880;2023-01-29T07:13:12;22.73;;;9.50;;
77705;SDS011;66874;45.274;5.880;2023-01-29T07:15:37;26.60;;;10.07;;
77705;SDS011;66874;45.274;5.880;2023-01-29T07:18:03;23.70;;;9.20;;
77705;SDS011;66874;45.274;5.880;2023-01-29T07:20:35;23.10;;;11.20;;
77705;SDS011;66874;45.274;5.880;2023-01-29T07:23:01;22.50;;;8.80;;
77705;SDS011;66874;45.274;5.880;2023-01-29T07:25:26;21.27;;;8.67;;
77705;SDS011;66874;45.274;5.880;2023-01-29T07:27:54;26.55;;;9.85;;
77705;SDS011;66874;45.274;5.880;2023-01-29T07:30:20;22.63;;;9.53;;
77705;SDS011;66874;45.274;5.880;2023-01-29T07:32:46;21.93;;;9.70;;
77705;SDS011;66874;45.274;5.880;2023-01-29T07:35:11;18.23;;;9.53;;
77705;SDS011;66874;45.274;5.880;2023-01-29T07:37:37;19.10;;;9.40;;
77705;SDS011;66874;45.274;5.880;2023-01-29T07:40:02;18.97;;;9.43;;
77705;SDS011;66874;45.274;5.880;2023-01-29T07:42:34;21.60;;;9.90;;
77705;SDS011;66874;45.274;5.880;2023-01-29T07:44:59;22.73;;;9.90;;
77705;SDS011;66874;45.274;5.880;2023-01-29T07:47:24;20.40;;;9.87;;
77705;SDS011;66874;45.274;5.880;2023-01-29T07:49:50;23.33;;;9.80;;
77705;SDS011;66874;45.274;5.880;2023-01-29T07:52:15;21.40;;;9.53;;
77705;SDS011;66874;45.274;5.880;2023-01-29T07:54:41;19.13;;;9.43;;
77705;SDS011;66874;45.274;5.880;2023-01-29T07:57:06;19.37;;;9.43;;
77705;SDS011;66874;45.274;5.880;2023-01-29T07:59:31;23.23;;;9.87;;
77705;SDS011;66874;45.274;5.880;2023-01-29T08:01:57;21.73;;;10.35;;
77705;SDS011;66874;45.274;5.880;2023-01-29T08:04:22;25.70;;;9.93;;
77705;SDS011;66874;45.274;5.880;2023-01-29T08:06:48;23.10;;;9.67;;
77705;SDS011;66874;45.274;5.880;2023-01-29T08:09:13;18.87;;;8.83;;
77705;SDS011;66874;45.274;5.880;2023-01-29T08:11:38;18.70;;;8.93;;
77705;SDS011;66874;45.274;5.880;2023-01-29T08:14:04;21.67;;;9.97;;
77705;SDS011;66874;45.274;5.880;2023-01-29T08:16:29;21.50;;;9.23;;
77705;SDS011;66874;45.274;5.880;2023-01-29T08:18:55;21.87;;;10.77;;
77705;SDS011;66874;45.274;5.880;2023-01-29T08:21:20;23.83;;;10.60;;
77705;SDS011;66874;45.274;5.880;2023-01-29T08:23:45;23.23;;;11.50;;
77705;SDS011;66874;45.274;5.880;2023-01-29T08:26:11;25.87;;;11.20;;
77705;SDS011;66874;45.274;5.880;2023-01-29T08:28:36;25.70;;;12.60;;
77705;SDS011;66874;45.274;5.880;2023-01-29T08:31:03;22.63;;;9.57;;
77705;SDS011;66874;45.274;5.880;2023-01-29T08:33:28;20.87;;;9.57;;
77705;SDS011;66874;45.274;5.880;2023-01-29T08:35:54;16.00;;;9.37;;
77705;SDS011;66874;45.274;5.880;2023-01-29T08:38:19;17.07;;;8.37;;
77705;SDS011;66874;45.274;5.880;2023-01-29T08:40:45;19.20;;;8.93;;
77705;SDS011;66874;45.274;5.880;2023-01-29T08:43:11;20.02;;;8.95;;
77705;SDS011;66874;45.274;5.880;2023-01-29T08:45:39;21.67;;;9.93;;
77705;SDS011;66874;45.274;5.880;2023-01-29T08:48:06;23.33;;;9.03;;
77705;SDS011;66874;45.274;5.880;2023-01-29T08:50:32;22.58;;;9.65;;
77705;SDS011;66874;45.274;5.880;2023-01-29T08:52:59;20.43;;;9.80;;
77705;SDS011;66874;45.274;5.880;2023-01-29T08:55:26;19.08;;;9.57;;
77705;SDS011;66874;45.274;5.880;2023-01-29T08:57:52;23.10;;;10.02;;
77705;SDS011;66874;45.274;5.880;2023-01-29T09:00:18;20.57;;;9.47;;
77705;SDS011;66874;45.274;5.880;2023-01-29T09:02:44;16.45;;;8.43;;
77705;SDS011;66874;45.274;5.880;2023-01-29T09:05:09;23.77;;;9.00;;
77705;SDS011;66874;45.274;5.880;2023-01-29T09:07:35;20.15;;;9.05;;
77705;SDS011;66874;45.274;5.880;2023-01-29T09:10:00;20.08;;;9.70;;
77705;SDS011;66874;45.274;5.880;2023-01-29T09:12:26;20.70;;;9.35;;
77705;SDS011;66874;45.274;5.880;2023-01-29T09:14:52;25.35;;;10.32;;
77705;SDS011;66874;45.274;5.880;2023-01-29T09:17:17;26.02;;;10.93;;
77705;SDS011;66874;45.274;5.880;2023-01-29T09:19:43;24.95;;;10.77;;
77705;SDS011;66874;45.274;5.880;2023-01-29T09:22:08;19.85;;;10.30;;
77705;SDS011;66874;45.274;5.880;2023-01-29T09:24:33;24.13;;;9.57;;
77705;SDS011;66874;45.274;5.880;2023-01-29T09:26:59;20.98;;;9.25;;
77705;SDS011;66874;45.274;5.880;2023-01-29T09:29:25;22.42;;;9.65;;
77705;SDS011;66874;45.274;5.880;2023-01-29T09:31:50;25.67;;;10.32;;
77705;SDS011;66874;45.274;5.880;2023-01-29T09:34:16;19.05;;;9.98;;
77705;SDS011;66874;45.274;5.880;2023-01-29T09:36:41;19.15;;;8.55;;
77705;SDS011;66874;45.274;5.880;2023-01-29T09:39:07;24.80;;;10.77;;
77705;SDS011;66874;45.274;5.880;2023-01-29T09:43:59;21.77;;;10.18;;
77705;SDS011;66874;45.274;5.880;2023-01-29T09:46:43;18.10;;;8.82;;
77705;SDS011;66874;45.274;5.880;2023-01-29T09:52:02;20.67;;;8.52;;
77705;SDS011;66874;45.274;5.880;2023-01-29T09:57:17;19.30;;;8.85;;
77705;SDS011;66874;45.274;5.880;2023-01-29T09:59:46;21.45;;;9.13;;
77705;SDS011;66874;45.274;5.880;2023-01-29T10:10:17;19.42;;;8.50;;
77705;SDS011;66874;45.274;5.880;2023-01-29T10:13:13;17.55;;;8.80;;
77705;SDS011;66874;45.274;5.880;2023-01-29T10:27:08;25.80;;;11.80;;
77705;SDS011;66874;45.274;5.880;2023-01-29T10:29:43;20.20;;;9.05;;
77705;SDS011;66874;45.274;5.880;2023-01-29T10:32:22;22.10;;;9.27;;
77705;SDS011;66874;45.274;5.880;2023-01-29T10:37:31;20.40;;;8.77;;
77705;SDS011;66874;45.274;5.880;2023-01-29T10:40:07;23.25;;;11.07;;
77705;SDS011;66874;45.274;5.880;2023-01-29T10:45:48;16.27;;;8.18;;
77705;SDS011;66874;45.274;5.880;2023-01-29T10:56:30;26.15;;;12.93;;
77705;SDS011;66874;45.274;5.880;2023-01-29T10:59:06;28.35;;;16.00;;
77705;SDS011;66874;45.274;5.880;2023-01-29T11:01:57;26.25;;;12.75;;
77705;SDS011;66874;45.274;5.880;2023-01-29T11:04:23;28.70;;;9.95;;
77705;SDS011;66874;45.274;5.880;2023-01-29T11:06:50;25.00;;;10.90;;
77705;SDS011;66874;45.274;5.880;2023-01-29T11:09:30;17.42;;;10.15;;
77705;SDS011;66874;45.274;5.880;2023-01-29T11:12:03;19.15;;;9.63;;
77705;SDS011;66874;45.274;5.880;2023-01-29T11:17:16;22.48;;;11.05;;
77705;SDS011;66874;45.274;5.880;2023-01-29T11:19:43;26.70;;;10.70;;
77705;SDS011;66874;45.274;5.880;2023-01-29T11:22:14;19.98;;;9.07;;
77705;SDS011;66874;45.274;5.880;2023-01-29T11:24:45;20.88;;;9.73;;
77705;SDS011;66874;45.274;5.880;2023-01-29T11:27:15;17.83;;;10.32;;
77705;SDS011;66874;45.274;5.880;2023-01-29T11:29:47;19.98;;;10.15;;
77705;SDS011;66874;45.274;5.880;2023-01-29T11:32:23;18.92;;;10.27;;
77705;SDS011;66874;45.274;5.880;2023-01-29T11:37:31;23.65;;;11.95;;
77705;SDS011;66874;45.274;5.880;2023-01-29T11:39:58;22.05;;;10.98;;
77705;SDS011;66874;45.274;5.880;2023-01-29T11:42:23;20.67;;;11.50;;
77705;SDS011;66874;45.274;5.880;2023-01-29T11:44:51;23.90;;;12.70;;
77705;SDS011;66874;45.274;5.880;2023-01-29T11:49:52;21.98;;;11.13;;
77705;SDS011;66874;45.274;5.880;2023-01-29T11:54:49;19.90;;;10.35;;
77705;SDS011;66874;45.274;5.880;2023-01-29T12:00:06;20.20;;;12.13;;
77705;SDS011;66874;45.274;5.880;2023-01-29T12:05:26;20.13;;;10.52;;
77705;SDS011;66874;45.274;5.880;2023-01-29T12:07:52;21.08;;;9.75;;
77705;SDS011;66874;45.274;5.880;2023-01-29T12:10:40;23.17;;;10.60;;
77705;SDS011;66874;45.274;5.880;2023-01-29T12:15:36;19.92;;;10.13;;
77705;SDS011;66874;45.274;5.880;2023-01-29T12:20:39;21.65;;;10.82;;
77705;SDS011;66874;45.274;5.880;2023-01-29T12:23:54;19.23;;;10.93;;
77705;SDS011;66874;45.274;5.880;2023-01-29T12:29:14;20.50;;;10.85;;
77705;SDS011;66874;45.274;5.880;2023-01-29T12:37:02;18.33;;;10.95;;
77705;SDS011;66874;45.274;5.880;2023-01-29T12:39:35;22.98;;;11.20;;
77705;SDS011;66874;45.274;5.880;2023-01-29T12:42:02;20.63;;;9.85;;
77705;SDS011;66874;45.274;5.880;2023-01-29T12:44:34;21.20;;;10.35;;
77705;SDS011;66874;45.274;5.880;2023-01-29T12:47:07;20.00;;;9.48;;
77705;SDS011;66874;45.274;5.880;2023-01-29T12:49:39;22.67;;;11.10;;
77705;SDS011;66874;45.274;5.880;2023-01-29T12:52:11;21.70;;;10.50;;
77705;SDS011;66874;45.274;5.880;2023-01-29T12:57:56;20.25;;;10.98;;
77705;SDS011;66874;45.274;5.880;2023-01-29T13:00:26;30.45;;;14.23;;
77705;SDS011;66874;45.274;5.880;2023-01-29T13:08:21;22.50;;;10.75;;
77705;SDS011;66874;45.274;5.880;2023-01-29T13:10:51;20.33;;;11.95;;
77705;SDS011;66874;45.274;5.880;2023-01-29T13:15:48;20.52;;;12.95;;
77705;SDS011;66874;45.274;5.880;2023-01-29T13:18:19;16.60;;;10.90;;
77705;SDS011;66874;45.274;5.880;2023-01-29T13:20:56;18.08;;;11.18;;
77705;SDS011;66874;45.274;5.880;2023-01-29T13:23:43;19.35;;;11.80;;
77705;SDS011;66874;45.274;5.880;2023-01-29T13:26:11;20.48;;;11.70;;
77705;SDS011;66874;45.274;5.880;2023-01-29T13:28:37;18.42;;;11.50;;
77705;SDS011;66874;45.274;5.880;2023-01-29T13:33:51;19.08;;;11.52;;
77705;SDS011;66874;45.274;5.880;2023-01-29T13:36:41;17.38;;;11.32;;
77705;SDS011;66874;45.274;5.880;2023-01-29T13:41:59;14.93;;;10.15;;
77705;SDS011;66874;45.274;5.880;2023-01-29T13:47:02;17.63;;;11.75;;
77705;SDS011;66874;45.274;5.880;2023-01-29T13:49:36;18.75;;;12.25;;
77705;SDS011;66874;45.274;5.880;2023-01-29T13:52:51;19.55;;;11.63;;
77705;SDS011;66874;45.274;5.880;2023-01-29T13:54:58;19.65;;;11.98;;
77705;SDS011;66874;45.274;5.880;2023-01-29T13:57:34;17.35;;;10.75;;
77705;SDS011;66874;45.274;5.880;2023-01-29T14:08:35;15.88;;;11.95;;
77705;SDS011;66874;45.274;5.880;2023-01-29T14:13:37;19.52;;;12.60;;
77705;SDS011;66874;45.274;5.880;2023-01-29T14:18:28;22.63;;;13.63;;
77705;SDS011;66874;45.274;5.880;2023-01-29T14:21:05;22.13;;;12.98;;
77705;SDS011;66874;45.274;5.880;2023-01-29T14:23:44;18.17;;;12.27;;
77705;SDS011;66874;45.274;5.880;2023-01-29T14:26:20;19.65;;;12.30;;
77705;SDS011;66874;45.274;5.880;2023-01-29T14:28:51;19.58;;;12.07;;
77705;SDS011;66874;45.274;5.880;2023-01-29T14:31:53;16.88;;;12.10;;
77705;SDS011;66874;45.274;5.880;2023-01-29T14:37:02;21.10;;;12.50;;
77705;SDS011;66874;45.274;5.880;2023-01-29T14:39:47;23.00;;;13.18;;
77705;SDS011;66874;45.274;5.880;2023-01-29T14:45:08;21.50;;;12.48;;
77705;SDS011;66874;45.274;5.880;2023-01-29T14:47:51;19.83;;;11.68;;
77705;SDS011;66874;45.274;5.880;2023-01-29T14:52:57;21.17;;;12.88;;
77705;SDS011;66874;45.274;5.880;2023-01-29T14:58:03;21.83;;;12.05;;
77705;SDS011;66874;45.274;5.880;2023-01-29T15:00:30;24.52;;;13.10;;
77705;SDS011;66874;45.274;5.880;2023-01-29T15:03:00;23.67;;;12.85;;
77705;SDS011;66874;45.274;5.880;2023-01-29T15:05:34;22.30;;;12.50;;
77705;SDS011;66874;45.274;5.880;2023-01-29T15:10:55;20.50;;;11.90;;
77705;SDS011;66874;45.274;5.880;2023-01-29T15:16:23;22.27;;;11.85;;
77705;SDS011;66874;45.274;5.880;2023-01-29T15:18:54;20.90;;;11.23;;
77705;SDS011;66874;45.274;5.880;2023-01-29T15:21:31;20.40;;;11.35;;
77705;SDS011;66874;45.274;5.880;2023-01-29T15:24:03;22.95;;;11.82;;
77705;SDS011;66874;45.274;5.880;2023-01-29T15:26:30;22.17;;;11.50;;
77705;SDS011;66874;45.274;5.880;2023-01-29T15:28:57;19.67;;;11.50;;
77705;SDS011;66874;45.274;5.880;2023-01-29T15:31:24;19.27;;;11.68;;
77705;SDS011;66874;45.274;5.880;2023-01-29T15:33:50;21.27;;;11.95;;
77705;SDS011;66874;45.274;5.880;2023-01-29T15:36:26;20.33;;;11.98;;
77705;SDS011;66874;45.274;5.880;2023-01-29T15:39:13;21.58;;;12.57;;
77705;SDS011;66874;45.274;5.880;2023-01-29T15:41:38;24.42;;;12.93;;
77705;SDS011;66874;45.274;5.880;2023-01-29T15:44:11;22.55;;;12.43;;
77705;SDS011;66874;45.274;5.880;2023-01-29T15:46:52;24.80;;;13.35;;
77705;SDS011;66874;45.274;5.880;2023-01-29T15:49:30;24.08;;;12.98;;
77705;SDS011;66874;45.274;5.880;2023-01-29T15:51:58;24.38;;;12.32;;
77705;SDS011;66874;45.274;5.880;2023-01-29T15:54:30;25.23;;;13.00;;
77705;SDS011;66874;45.274;5.880;2023-01-29T15:56:58;27.02;;;13.93;;
77705;SDS011;66874;45.274;5.880;2023-01-29T15:59:26;21.15;;;12.07;;
77705;SDS011;66874;45.274;5.880;2023-01-29T16:01:58;25.73;;;13.23;;
77705;SDS011;66874;45.274;5.880;2023-01-29T16:04:42;25.92;;;13.40;;
77705;SDS011;66874;45.274;5.880;2023-01-29T16:07:08;27.10;;;14.13;;
77705;SDS011;66874;45.274;5.880;2023-01-29T16:09:35;26.52;;;13.45;;
77705;SDS011;66874;45.274;5.880;2023-01-29T16:12:01;24.95;;;13.30;;
77705;SDS011;66874;45.274;5.880;2023-01-29T16:14:26;32.22;;;14.45;;
77705;SDS011;66874;45.274;5.880;2023-01-29T16:16:53;50.97;;;22.63;;
77705;SDS011;66874;45.274;5.880;2023-01-29T16:19:26;44.05;;;22.08;;
77705;SDS011;66874;45.274;5.880;2023-01-29T17:30:21;46.60;;;25.10;;
77705;SDS011;66874;45.274;5.880;2023-01-29T17:32:48;59.90;;;28.67;;
77705;SDS011;66874;45.274;5.880;2023-01-29T17:35:14;56.70;;;29.40;;
77705;SDS011;66874;45.274;5.880;2023-01-29T17:37:40;70.30;;;33.75;;
77705;SDS011;66874;45.274;5.880;2023-01-29T17:43:00;88.63;;;43.60;;
77705;SDS011;66874;45.274;5.880;2023-01-29T17:45:25;78.40;;;38.85;;
77705;SDS011;66874;45.274;5.880;2023-01-29T17:47:51;78.38;;;38.10;;
77705;SDS011;66874;45.274;5.880;2023-01-29T17:50:18;72.07;;;36.40;;
77705;SDS011;66874;45.274;5.880;2023-01-29T17:52:47;69.93;;;33.30;;
77705;SDS011;66874;45.274;5.880;2023-01-29T17:55:13;68.63;;;33.88;;
77705;SDS011;66874;45.274;5.880;2023-01-29T17:57:38;74.75;;;36.90;;
77705;SDS011;66874;45.274;5.880;2023-01-29T18:00:20;79.00;;;37.47;;
77705;SDS011;66874;45.274;5.880;2023-01-29T18:02:48;67.22;;;33.13;;
77705;SDS011;66874;45.274;5.880;2023-01-29T18:05:13;69.10;;;34.58;;
77705;SDS011;66874;45.274;5.880;2023-01-29T18:07:40;73.68;;;33.65;;
77705;SDS011;66874;45.274;5.880;2023-01-29T18:10:11;82.20;;;39.13;;
77705;SDS011;66874;45.274;5.880;2023-01-29T18:12:40;95.07;;;40.17;;
77705;SDS011;66874;45.274;5.880;2023-01-29T18:15:05;98.40;;;39.05;;
77705;SDS011;66874;45.274;5.880;2023-01-29T18:17:31;83.45;;;36.38;;
77705;SDS011;66874;45.274;5.880;2023-01-29T18:19:57;82.55;;;35.22;;
77705;SDS011;66874;45.274;5.880;2023-01-29T18:22:23;69.73;;;31.63;;
77705;SDS011;66874;45.274;5.880;2023-01-29T18:24:49;67.13;;;30.63;;
77705;SDS011;66874;45.274;5.880;2023-01-29T18:27:14;65.45;;;29.95;;
77705;SDS011;66874;45.274;5.880;2023-01-29T18:29:40;57.13;;;27.33;;
77705;SDS011;66874;45.274;5.880;2023-01-29T18:32:05;60.53;;;27.40;;
77705;SDS011;66874;45.274;5.880;2023-01-29T18:34:31;62.85;;;28.13;;
77705;SDS011;66874;45.274;5.880;2023-01-29T18:36:56;55.00;;;27.63;;
77705;SDS011;66874;45.274;5.880;2023-01-29T18:39:23;56.03;;;26.40;;
77705;SDS011;66874;45.274;5.880;2023-01-29T18:41:49;55.28;;;28.02;;
77705;SDS011;66874;45.274;5.880;2023-01-29T18:44:15;59.40;;;31.10;;
77705;SDS011;66874;45.274;5.880;2023-01-29T18:46:40;67.28;;;31.55;;
77705;SDS011;66874;45.274;5.880;2023-01-29T18:49:06;67.82;;;28.75;;
77705;SDS011;66874;45.274;5.880;2023-01-29T18:51:31;64.95;;;28.58;;
77705;SDS011;66874;45.274;5.880;2023-01-29T18:53:57;61.00;;;28.40;;
77705;SDS011;66874;45.274;5.880;2023-01-29T18:56:22;57.33;;;26.95;;
77705;SDS011;66874;45.274;5.880;2023-01-29T18:58:47;60.05;;;26.52;;
77705;SDS011;66874;45.274;5.880;2023-01-29T19:01:14;61.70;;;28.25;;
77705;SDS011;66874;45.274;5.880;2023-01-29T19:03:39;62.92;;;31.85;;
77705;SDS011;66874;45.274;5.880;2023-01-29T19:06:06;79.50;;;36.35;;
77705;SDS011;66874;45.274;5.880;2023-01-29T19:08:34;67.63;;;33.03;;
77705;SDS011;66874;45.274;5.880;2023-01-29T19:11:00;62.65;;;31.83;;
77705;SDS011;66874;45.274;5.880;2023-01-29T19:13:28;61.55;;;31.52;;
77705;SDS011;66874;45.274;5.880;2023-01-29T19:15:54;82.22;;;37.70;;
77705;SDS011;66874;45.274;5.880;2023-01-29T19:18:19;91.57;;;43.38;;
77705;SDS011;66874;45.274;5.880;2023-01-29T19:20:45;90.68;;;39.22;;
77705;SDS011;66874;45.274;5.880;2023-01-29T19:23:10;79.97;;;38.15;;
77705;SDS011;66874;45.274;5.880;2023-01-29T19:25:37;84.63;;;39.25;;
77705;SDS011;66874;45.274;5.880;2023-01-29T19:28:03;79.20;;;38.07;;
77705;SDS011;66874;45.274;5.880;2023-01-29T19:30:30;77.82;;;36.15;;
77705;SDS011;66874;45.274;5.880;2023-01-29T19:32:56;73.05;;;34.47;;
77705;SDS011;66874;45.274;5.880;2023-01-29T19:35:21;72.32;;;32.85;;
77705;SDS011;66874;45.274;5.880;2023-01-29T19:37:47;64.32;;;32.10;;
77705;SDS011;66874;45.274;5.880;2023-01-29T19:40:13;66.18;;;30.23;;
77705;SDS011;66874;45.274;5.880;2023-01-29T19:42:39;79.60;;;37.50;;
77705;SDS011;66874;45.274;5.880;2023-01-29T19:45:05;70.55;;;34.50;;
77705;SDS011;66874;45.274;5.880;2023-01-29T19:47:31;73.90;;;31.50;;
77705;SDS011;66874;45.274;5.880;2023-01-29T19:50:01;92.85;;;40.20;;
77705;SDS011;66874;45.274;5.880;2023-01-29T19:52:27;83.85;;;33.80;;
77705;SDS011;66874;45.274;5.880;2023-01-29T19:54:59;70.50;;;30.10;;
77705;SDS011;66874;45.274;5.880;2023-01-29T19:57:25;68.28;;;30.67;;
77705;SDS011;66874;45.274;5.880;2023-01-29T19:59:50;60.80;;;27.33;;
77705;SDS011;66874;45.274;5.880;2023-01-29T20:02:16;75.68;;;33.25;;
77705;SDS011;66874;45.274;5.880;2023-01-29T20:04:41;68.18;;;31.52;;
77705;SDS011;66874;45.274;5.880;2023-01-29T20:07:06;72.63;;;32.83;;
77705;SDS011;66874;45.274;5.880;2023-01-29T20:09:32;81.65;;;35.63;;
77705;SDS011;66874;45.274;5.880;2023-01-29T20:11:57;86.15;;;40.50;;
77705;SDS011;66874;45.274;5.880;2023-01-29T20:14:23;95.75;;;41.63;;
77705;SDS011;66874;45.274;5.880;2023-01-29T20:16:48;106.78;;;44.25;;
77705;SDS011;66874;45.274;5.880;2023-01-29T20:19:13;73.93;;;32.15;;
77705;SDS011;66874;45.274;5.880;2023-01-29T20:21:39;67.97;;;29.55;;
77705;SDS011;66874;45.274;5.880;2023-01-29T20:24:06;73.50;;;32.00;;
77705;SDS011;66874;45.274;5.880;2023-01-29T20:26:36;78.90;;;31.77;;
77705;SDS011;66874;45.274;5.880;2023-01-29T20:29:01;64.15;;;29.23;;
77705;SDS011;66874;45.274;5.880;2023-01-29T20:31:27;68.45;;;29.83;;
77705;SDS011;66874;45.274;5.880;2023-01-29T20:33:52;86.18;;;32.80;;
77705;SDS011;66874;45.274;5.880;2023-01-29T20:36:18;82.97;;;36.13;;
77705;SDS011;66874;45.274;5.880;2023-01-29T20:38:43;93.63;;;37.22;;
77705;SDS011;66874;45.274;5.880;2023-01-29T20:41:12;96.43;;;39.30;;
77705;SDS011;66874;45.274;5.880;2023-01-29T20:43:40;90.75;;;35.60;;
77705;SDS011;66874;45.274;5.880;2023-01-29T20:46:07;84.13;;;35.77;;
77705;SDS011;66874;45.274;5.880;2023-01-29T20:48:33;90.53;;;33.93;;
77705;SDS011;66874;45.274;5.880;2023-01-29T20:51:16;73.07;;;31.60;;
77705;SDS011;66874;45.274;5.880;2023-01-29T20:53:43;80.37;;;33.43;;
77705;SDS011;66874;45.274;5.880;2023-01-29T20:56:10;75.03;;;32.63;;
77705;SDS011;66874;45.274;5.880;2023-01-29T20:58:36;73.30;;;31.85;;
77705;SDS011;66874;45.274;5.880;2023-01-29T21:01:09;71.93;;;32.90;;
77705;SDS011;66874;45.274;5.880;2023-01-29T21:03:36;73.18;;;33.03;;
77705;SDS011;66874;45.274;5.880;2023-01-29T21:06:03;72.57;;;32.25;;
77705;SDS011;66874;45.274;5.880;2023-01-29T21:08:28;72.20;;;31.43;;
77705;SDS011;66874;45.274;5.880;2023-01-29T21:10:54;69.53;;;29.35;;
77705;SDS011;66874;45.274;5.880;2023-01-29T21:13:19;70.83;;;30.77;;
77705;SDS011;66874;45.274;5.880;2023-01-29T21:15:45;67.97;;;29.88;;
77705;SDS011;66874;45.274;5.880;2023-01-29T21:18:10;60.88;;;28.25;;
77705;SDS011;66874;45.274;5.880;2023-01-29T21:20:36;65.10;;;28.97;;
77705;SDS011;66874;45.274;5.880;2023-01-29T21:23:01;75.80;;;31.30;;
77705;SDS011;66874;45.274;5.880;2023-01-29T21:25:28;77.38;;;30.65;;
77705;SDS011;66874;45.274;5.880;2023-01-29T21:27:54;72.75;;;31.17;;
77705;SDS011;66874;45.274;5.880;2023-01-29T21:30:20;73.35;;;31.25;;
77705;SDS011;66874;45.274;5.880;2023-01-29T21:32:45;80.55;;;32.92;;
77705;SDS011;66874;45.274;5.880;2023-01-29T21:35:11;90.28;;;36.05;;
77705;SDS011;66874;45.274;5.880;2023-01-29T21:37:36;78.53;;;32.25;;
77705;SDS011;66874;45.274;5.880;2023-01-29T21:40:03;79.68;;;31.92;;
77705;SDS011;66874;45.274;5.880;2023-01-29T21:42:29;78.18;;;32.30;;
77705;SDS011;66874;45.274;5.880;2023-01-29T21:45:13;78.82;;;31.00;;
77705;SDS011;66874;45.274;5.880;2023-01-29T21:47:39;65.23;;;27.90;;
77705;SDS011;66874;45.274;5.880;2023-01-29T21:50:05;69.72;;;31.85;;
77705;SDS011;66874;45.274;5.880;2023-01-29T21:52:30;66.68;;;31.98;;
77705;SDS011;66874;45.274;5.880;2023-01-29T21:54:56;74.32;;;31.05;;
77705;SDS011;66874;45.274;5.880;2023-01-29T21:57:21;68.20;;;31.27;;
77705;SDS011;66874;45.274;5.880;2023-01-29T21:59:50;77.57;;;31.33;;
77705;SDS011;66874;45.274;5.880;2023-01-29T22:02:17;83.33;;;36.47;;
77705;SDS011;66874;45.274;5.880;2023-01-29T22:04:43;99.72;;;35.70;;
77705;SDS011;66874;45.274;5.880;2023-01-29T22:07:09;95.82;;;35.08;;
77705;SDS011;66874;45.274;5.880;2023-01-29T22:09:35;75.03;;;29.98;;
77705;SDS011;66874;45.274;5.880;2023-01-29T22:12:00;65.80;;;27.67;;
77705;SDS011;66874;45.274;5.880;2023-01-29T22:14:26;67.30;;;27.33;;
77705;SDS011;66874;45.274;5.880;2023-01-29T22:16:51;68.20;;;27.25;;
77705;SDS011;66874;45.274;5.880;2023-01-29T22:19:17;53.60;;;23.63;;
77705;SDS011;66874;45.274;5.880;2023-01-29T22:21:42;56.10;;;23.85;;
77705;SDS011;66874;45.274;5.880;2023-01-29T22:24:08;52.78;;;22.52;;
77705;SDS011;66874;45.274;5.880;2023-01-29T22:26:34;47.10;;;20.10;;
77705;SDS011;66874;45.274;5.880;2023-01-29T22:29:00;56.63;;;21.20;;
77705;SDS011;66874;45.274;5.880;2023-01-29T22:31:25;57.50;;;22.67;;
77705;SDS011;66874;45.274;5.880;2023-01-29T22:33:51;42.27;;;18.00;;
77705;SDS011;66874;45.274;5.880;2023-01-29T22:36:17;39.83;;;17.80;;
77705;SDS011;66874;45.274;5.880;2023-01-29T22:38:43;36.58;;;16.77;;
77705;SDS011;66874;45.274;5.880;2023-01-29T22:41:10;37.92;;;17.40;;
77705;SDS011;66874;45.274;5.880;2023-01-29T22:43:37;38.58;;;17.50;;
77705;SDS011;66874;45.274;5.880;2023-01-29T22:46:08;38.92;;;18.58;;
77705;SDS011;66874;45.274;5.880;2023-01-29T22:48:34;37.88;;;17.88;;
77705;SDS011;66874;45.274;5.880;2023-01-29T22:51:00;49.70;;;20.38;;
77705;SDS011;66874;45.274;5.880;2023-01-29T22:53:35;44.67;;;19.67;;
77705;SDS011;66874;45.274;5.880;2023-01-29T22:56:02;40.15;;;19.50;;
77705;SDS011;66874;45.274;5.880;2023-01-29T22:58:28;47.92;;;21.58;;
77705;SDS011;66874;45.274;5.880;2023-01-29T23:00:53;38.92;;;19.45;;
77705;SDS011;66874;45.274;5.880;2023-01-29T23:03:19;42.92;;;20.15;;
77705;SDS011;66874;45.274;5.880;2023-01-29T23:05:44;47.45;;;21.58;;
77705;SDS011;66874;45.274;5.880;2023-01-29T23:08:09;46.10;;;20.15;;
77705;SDS011;66874;45.274;5.880;2023-01-29T23:10:35;48.28;;;20.35;;
77705;SDS011;66874;45.274;5.880;2023-01-29T23:13:01;44.58;;;20.13;;
77705;SDS011;66874;45.274;5.880;2023-01-29T23:15:26;48.63;;;20.50;;